createdAt,value
2022-08-27T00:04:43.671Z,5.20
2022-08-27T00:09:47.122Z,4.13
2022-08-27T00:14:50.668Z,5.13
2022-08-27T00:19:55.494Z,5.17
2022-08-27T00:24:59.252Z,5.73
2022-08-27T00:30:02.520Z,5.93
2022-08-27T00:35:08.088Z,5.33
2022-08-27T00:40:13.383Z,5.77
2022-08-27T00:45:17.978Z,7.10
2022-08-27T00:50:26.063Z,7.33
2022-08-27T00:55:33.404Z,7.07
2022-08-27T01:00:39.010Z,7.40
2022-08-27T01:05:44.195Z,7.43
2022-08-27T01:10:47.633Z,7.87
2022-08-27T01:15:51.151Z,7.37
2022-08-27T01:20:58.110Z,7.00
2022-08-27T01:26:03.986Z,7.43
2022-08-27T01:31:08.868Z,7.70
2022-08-27T01:36:12.269Z,8.90
2022-08-27T01:41:17.093Z,6.93
2022-08-27T01:46:21.992Z,7.10
2022-08-27T01:51:25.381Z,6.70
2022-08-27T01:56:30.149Z,6.87
2022-08-27T02:01:33.838Z,7.67
2022-08-27T02:06:37.256Z,7.93
2022-08-27T02:11:44.801Z,7.27
2022-08-27T02:16:52.156Z,7.40
2022-08-27T02:22:00.252Z,7.40
2022-08-27T02:27:05.185Z,7.10
2022-08-27T02:32:17.620Z,7.77
2022-08-27T02:37:28.475Z,8.80
2022-08-27T02:42:33.229Z,8.00
2022-08-27T02:47:36.723Z,9.07
2022-08-27T02:52:40.266Z,9.43
2022-08-27T02:57:45.064Z,11.57
2022-08-27T03:02:48.567Z,10.10
2022-08-27T03:07:52.047Z,12.93
2022-08-27T03:12:57.646Z,13.87
2022-08-27T03:18:19.174Z,13.27
2022-08-27T03:23:25.202Z,12.63
2022-08-27T03:28:30.621Z,12.17
2022-08-27T03:33:35.009Z,15.87
2022-08-27T03:38:39.923Z,16.70
2022-08-27T03:43:44.739Z,15.97
2022-08-27T03:48:48.996Z,15.67
2022-08-27T03:53:55.507Z,16.23
2022-08-27T03:59:00.243Z,15.33
2022-08-27T04:04:03.734Z,15.83
2022-08-27T04:09:07.429Z,16.13
2022-08-27T04:14:20.805Z,14.30
2022-08-27T04:19:33.203Z,17.13
2022-08-27T04:24:37.616Z,18.07
2022-08-27T04:29:42.346Z,19.63
2022-08-27T04:34:45.787Z,19.90
2022-08-27T04:39:50.381Z,21.13
2022-08-27T04:44:55.133Z,21.60
2022-08-27T04:49:58.514Z,20.60
2022-08-27T04:55:01.787Z,23.73
2022-08-27T05:00:08.244Z,29.33
2022-08-27T05:05:15.849Z,28.87
2022-08-27T05:10:19.561Z,28.87
2022-08-27T05:15:24.767Z,28.37
2022-08-27T05:20:28.439Z,27.87
2022-08-27T05:25:31.774Z,27.03
2022-08-27T05:30:38.798Z,25.63
2022-08-27T05:35:42.971Z,26.60
2022-08-27T05:40:48.054Z,25.10
2022-08-27T05:45:52.809Z,22.77
2022-08-27T05:50:56.277Z,25.77
2022-08-27T05:56:00.665Z,24.70
2022-08-27T06:01:10.418Z,26.10
2022-08-27T06:06:14.165Z,26.10
2022-08-27T06:11:19.136Z,25.07
2022-08-27T06:16:24.040Z,26.10
2022-08-27T06:21:27.625Z,25.67
2022-08-27T06:26:31.288Z,23.30
2022-08-27T06:31:36.194Z,24.63
2022-08-27T06:36:41.409Z,26.97
2022-08-27T06:41:45.096Z,25.27
2022-08-27T06:46:49.800Z,25.50
2022-08-27T06:51:53.662Z,27.83
2022-08-27T06:56:59.606Z,26.40
2022-08-27T07:02:04.375Z,25.60
2022-08-27T07:07:08.659Z,25.23
2022-08-27T07:12:12.225Z,26.70
2022-08-27T07:17:17.592Z,26.30
2022-08-27T07:22:20.940Z,25.87
2022-08-27T07:27:24.314Z,28.57
2022-08-27T07:32:31.283Z,26.93
2022-08-27T07:37:35.481Z,27.13
2022-08-27T07:42:56.590Z,29.07
2022-08-27T07:48:01.279Z,27.60
2022-08-27T07:53:04.700Z,26.83
2022-08-27T07:58:11.517Z,28.97
2022-08-27T08:03:16.880Z,27.50
2022-08-27T08:08:20.486Z,26.17
2022-08-27T08:13:23.901Z,28.07
2022-08-27T08:18:28.889Z,27.93
2022-08-27T08:23:33.073Z,29.00
2022-08-27T08:28:37.173Z,27.27
2022-08-27T08:33:41.948Z,26.40
2022-08-27T08:38:46.357Z,25.73
2022-08-27T08:43:51.794Z,26.57
2022-08-27T08:48:58.457Z,25.43
2022-08-27T08:54:03.946Z,25.47
2022-08-27T08:59:10.169Z,28.20
2022-08-27T09:04:14.980Z,26.43
2022-08-27T09:09:22.325Z,27.00
2022-08-27T09:14:31.503Z,25.73
2022-08-27T09:19:37.280Z,24.87
2022-08-27T09:24:45.947Z,7.77
2022-08-27T09:29:50.378Z,6.63
2022-08-27T09:34:58.646Z,4.57
2022-08-27T09:40:05.648Z,4.23
2022-08-27T09:45:18.526Z,2.80
2022-08-27T09:50:24.362Z,3.43
2022-08-27T09:55:32.186Z,3.13
2022-08-27T10:00:37.818Z,2.90
2022-08-27T10:05:44.747Z,3.27
2022-08-27T10:10:52.321Z,3.63
2022-08-27T10:16:02.576Z,3.90
2022-08-27T10:21:10.391Z,3.73
2022-08-27T10:26:16.146Z,4.40
2022-08-27T10:31:25.299Z,3.70
2022-08-27T10:36:35.716Z,4.17
2022-08-27T10:41:43.196Z,3.83
2022-08-27T10:46:55.085Z,3.73
2022-08-27T10:52:08.129Z,3.57
2022-08-27T10:57:31.698Z,3.43
2022-08-27T11:02:43.091Z,4.00
2022-08-27T11:07:50.870Z,3.73
2022-08-27T11:12:56.633Z,4.27
2022-08-27T11:18:03.000Z,4.27
2022-08-27T11:23:10.212Z,3.90
2022-08-27T11:28:13.939Z,4.50
2022-08-27T11:33:19.832Z,4.70
2022-08-27T11:38:30.384Z,4.10
2022-08-27T11:43:35.184Z,4.57
2022-08-27T11:48:40.914Z,4.13
2022-08-27T11:53:56.859Z,4.60
2022-08-27T11:59:09.860Z,4.70
2022-08-27T12:04:23.725Z,4.73
2022-08-27T12:09:28.786Z,4.73
2022-08-27T12:14:40.380Z,4.33
2022-08-27T12:19:48.155Z,4.53
2022-08-27T12:24:55.813Z,3.60
2022-08-27T12:30:00.526Z,4.30
2022-08-27T12:35:06.594Z,4.30
2022-08-27T12:40:16.400Z,4.80
2022-08-27T12:45:25.634Z,4.50
2022-08-27T12:50:30.579Z,4.33
2022-08-27T12:55:46.181Z,4.43
2022-08-27T13:01:13.024Z,4.43
2022-08-27T13:06:18.272Z,4.73
2022-08-27T13:11:23.780Z,4.83
2022-08-27T13:16:29.509Z,5.10
2022-08-27T13:21:33.397Z,5.97
2022-08-27T13:26:39.347Z,6.00
2022-08-27T13:31:43.775Z,6.23
2022-08-27T13:36:55.726Z,6.97
2022-08-27T13:42:02.062Z,7.67
2022-08-27T13:47:07.356Z,7.43
2022-08-27T13:52:17.076Z,7.17
2022-08-27T13:57:26.478Z,6.97
2022-08-27T14:02:30.437Z,6.83
2022-08-27T14:07:36.337Z,6.70
2022-08-27T14:12:42.481Z,7.17
2022-08-27T14:17:46.995Z,7.07
2022-08-27T14:22:51.022Z,7.33
2022-08-27T14:27:57.366Z,8.07
2022-08-27T14:33:01.447Z,7.50
2022-08-27T14:38:08.429Z,8.47
2022-08-27T14:43:13.871Z,8.30
2022-08-27T14:48:20.536Z,7.83
2022-08-27T14:53:31.974Z,7.67
2022-08-27T14:58:36.740Z,9.13
2022-08-27T15:03:40.848Z,9.23
2022-08-27T15:08:44.694Z,10.00
2022-08-27T15:13:49.608Z,10.80
2022-08-27T15:18:59.291Z,10.60
2022-08-27T15:24:06.473Z,9.67
2022-08-27T15:29:11.326Z,9.77
2022-08-27T15:34:14.757Z,9.57
2022-08-27T15:39:18.314Z,11.23
2022-08-27T15:44:23.173Z,10.77
2022-08-27T15:49:26.612Z,11.57
2022-08-27T15:54:30.085Z,11.07
2022-08-27T15:59:34.855Z,11.13
2022-08-27T16:04:40.640Z,11.97
2022-08-27T16:09:44.668Z,10.83
2022-08-27T16:14:49.693Z,10.40
2022-08-27T16:19:53.156Z,10.37
2022-08-27T16:24:56.646Z,10.97
2022-08-27T16:30:01.618Z,9.93
2022-08-27T16:35:05.398Z,13.13
2022-08-27T16:40:09.429Z,12.07
2022-08-27T16:45:14.991Z,11.80
2022-08-27T16:50:36.433Z,12.10
2022-08-27T16:55:39.968Z,12.03
2022-08-27T17:00:44.922Z,12.70
2022-08-27T17:05:48.486Z,12.60
2022-08-27T17:10:54.315Z,13.37
2022-08-27T17:16:01.634Z,12.03
2022-08-27T17:21:05.621Z,12.53
2022-08-27T17:26:10.338Z,11.00
2022-08-27T17:31:16.327Z,10.70
2022-08-27T17:36:32.075Z,9.63
2022-08-27T17:41:38.596Z,9.17
2022-08-27T17:46:43.501Z,9.27
2022-08-27T17:51:48.464Z,11.03
2022-08-27T17:56:51.977Z,10.53
2022-08-27T18:01:57.032Z,10.73
2022-08-27T18:07:00.471Z,11.30
2022-08-27T18:12:04.669Z,12.03
2022-08-27T18:17:09.481Z,11.50
2022-08-27T18:22:17.091Z,11.40
2022-08-27T18:27:21.653Z,11.33
2022-08-27T18:32:26.601Z,12.07
2022-08-27T18:37:30.067Z,13.73
2022-08-27T18:42:35.391Z,13.27
2022-08-27T18:47:40.401Z,11.77
2022-08-27T18:52:44.220Z,11.10
2022-08-27T18:57:47.763Z,9.60
2022-08-27T19:02:53.514Z,10.27
2022-08-27T19:07:57.138Z,11.47
2022-08-27T19:13:00.537Z,10.80
2022-08-27T19:18:05.637Z,11.27
2022-08-27T19:23:09.066Z,10.70
2022-08-27T19:28:12.524Z,10.57
2022-08-27T19:33:17.374Z,10.47
2022-08-27T19:38:20.731Z,10.30
2022-08-27T19:43:24.166Z,10.30
2022-08-27T19:48:29.024Z,10.93
2022-08-27T19:53:33.594Z,9.67
2022-08-27T19:58:37.016Z,10.43
2022-08-27T20:03:41.782Z,10.27
2022-08-27T20:08:45.421Z,10.27
2022-08-27T20:13:51.323Z,10.60
2022-08-27T20:18:59.631Z,11.27
2022-08-27T20:24:04.592Z,10.97
2022-08-27T20:29:08.809Z,9.73
2022-08-27T20:34:14.501Z,9.57
2022-08-27T20:39:17.920Z,9.87
2022-08-27T20:44:21.271Z,8.03
2022-08-27T20:49:27.971Z,7.83
2022-08-27T20:54:31.344Z,7.57
2022-08-27T20:59:52.364Z,7.47
2022-08-27T21:04:57.671Z,7.97
2022-08-27T21:10:01.120Z,7.47
2022-08-27T21:15:05.790Z,8.43
2022-08-27T21:20:12.141Z,8.80
2022-08-27T21:25:15.596Z,8.53
2022-08-27T21:30:19.198Z,7.80
2022-08-27T21:35:26.475Z,8.23
2022-08-27T21:40:30.226Z,8.67
2022-08-27T21:45:33.666Z,9.73
2022-08-27T21:50:38.652Z,9.73
2022-08-27T21:55:42.046Z,9.47
2022-08-27T22:00:47.771Z,10.07
2022-08-27T22:05:52.986Z,9.97
2022-08-27T22:10:57.925Z,10.70
2022-08-27T22:16:01.333Z,10.30
2022-08-27T22:21:07.072Z,10.07
2022-08-27T22:26:10.355Z,10.73
2022-08-27T22:31:13.955Z,10.03
2022-08-27T22:36:18.693Z,11.23
2022-08-27T22:41:22.216Z,10.57
2022-08-27T22:46:25.660Z,10.60
2022-08-27T22:51:30.386Z,11.10
2022-08-27T22:56:34.108Z,11.07
2022-08-27T23:01:37.457Z,11.97
2022-08-27T23:06:42.216Z,12.80
2022-08-27T23:11:45.721Z,12.17
2022-08-27T23:16:49.154Z,13.13
2022-08-27T23:21:53.962Z,13.67
2022-08-27T23:27:14.716Z,14.60
2022-08-27T23:32:18.153Z,14.93
2022-08-27T23:37:23.936Z,15.00
2022-08-27T23:42:28.172Z,13.93
2022-08-27T23:47:31.596Z,14.53
2022-08-27T23:52:36.650Z,14.63
2022-08-27T23:57:40.429Z,13.90
